createdAt,value
2023-01-09T00:00:53.916Z,16.33
2023-01-09T00:03:21.028Z,9.77
2023-01-09T00:05:48.176Z,11.50
2023-01-09T00:08:15.445Z,11.02
2023-01-09T00:10:42.541Z,10.32
2023-01-09T00:13:11.625Z,12.50
2023-01-09T00:15:39.033Z,12.15
2023-01-09T00:18:06.441Z,12.30
2023-01-09T00:20:33.574Z,17.35
2023-01-09T00:23:00.703Z,12.70
2023-01-09T00:25:27.825Z,9.90
2023-01-09T00:27:54.991Z,18.85
2023-01-09T00:30:22.173Z,10.38
2023-01-09T00:32:49.297Z,27.65
2023-01-09T00:35:17.515Z,14.60
2023-01-09T00:37:44.685Z,12.32
2023-01-09T00:40:12.032Z,18.05
2023-01-09T00:42:39.238Z,17.55
2023-01-09T00:45:08.766Z,9.07
2023-01-09T00:47:39.874Z,7.18
2023-01-09T00:50:15.783Z,9.02
2023-01-09T00:52:43.073Z,11.27
2023-01-09T00:55:10.310Z,14.43
2023-01-09T00:57:38.651Z,10.25
2023-01-09T01:00:06.077Z,13.57
2023-01-09T01:02:33.203Z,19.20
2023-01-09T01:05:19.106Z,31.60
2023-01-09T01:07:46.255Z,15.00
2023-01-09T01:10:16.245Z,26.98
2023-01-09T01:12:44.007Z,9.07
2023-01-09T01:15:11.380Z,18.20
2023-01-09T01:17:38.734Z,14.30
2023-01-09T01:20:06.334Z,43.17
2023-01-09T01:22:33.430Z,20.67
2023-01-09T01:25:00.552Z,23.25
2023-01-09T01:27:28.276Z,11.95
2023-01-09T01:29:55.577Z,25.92
2023-01-09T01:32:22.742Z,19.13
2023-01-09T01:34:49.861Z,31.02
2023-01-09T01:37:17.022Z,16.60
2023-01-09T01:39:44.120Z,22.23
2023-01-09T01:42:13.121Z,10.02
2023-01-09T01:44:59.146Z,16.70
2023-01-09T01:47:29.500Z,14.27
2023-01-09T01:49:56.783Z,18.27
2023-01-09T01:52:23.867Z,7.53
2023-01-09T01:54:51.008Z,5.65
2023-01-09T01:57:18.109Z,11.38
2023-01-09T01:59:52.613Z,17.25
2023-01-09T02:02:20.844Z,16.95
2023-01-09T02:04:48.056Z,16.45
2023-01-09T02:07:15.208Z,16.90
2023-01-09T02:09:44.461Z,23.25
2023-01-09T02:12:24.461Z,21.27
2023-01-09T02:14:54.672Z,31.50
2023-01-09T02:17:25.941Z,24.60
2023-01-09T02:20:11.914Z,22.58
2023-01-09T02:22:57.822Z,23.80
2023-01-09T02:25:43.668Z,21.48
2023-01-09T02:28:13.881Z,29.75
2023-01-09T02:30:43.793Z,18.30
2023-01-09T02:33:22.930Z,18.05
2023-01-09T02:35:50.013Z,25.33
2023-01-09T02:38:29.551Z,18.48
2023-01-09T02:41:01.266Z,25.70
2023-01-09T02:43:28.410Z,27.33
2023-01-09T02:45:55.559Z,21.40
2023-01-09T02:48:22.683Z,24.35
2023-01-09T02:50:49.777Z,25.70
2023-01-09T02:53:27.061Z,30.98
2023-01-09T02:55:57.165Z,22.05
2023-01-09T02:58:34.451Z,24.08
2023-01-09T03:01:01.712Z,24.55
2023-01-09T03:03:28.878Z,27.20
2023-01-09T03:06:06.435Z,18.80
2023-01-09T03:08:43.739Z,19.13
2023-01-09T03:11:11.936Z,30.95
2023-01-09T03:13:43.117Z,31.33
2023-01-09T03:16:10.408Z,33.67
2023-01-09T03:18:37.595Z,35.88
2023-01-09T03:21:05.604Z,35.28
2023-01-09T03:23:48.183Z,29.02
2023-01-09T03:26:15.395Z,29.10
2023-01-09T03:28:42.487Z,26.55
2023-01-09T03:31:09.713Z,23.73
2023-01-09T03:33:36.839Z,18.35
2023-01-09T03:36:04.155Z,20.42
2023-01-09T03:38:31.274Z,25.17
2023-01-09T03:40:58.425Z,27.73
2023-01-09T03:43:25.564Z,18.63
2023-01-09T03:45:52.761Z,23.67
2023-01-09T03:48:19.903Z,31.17
2023-01-09T03:50:49.008Z,32.42
2023-01-09T03:53:16.784Z,26.67
2023-01-09T03:55:47.304Z,19.08
2023-01-09T03:58:14.868Z,21.10
2023-01-09T04:00:42.019Z,16.55
2023-01-09T04:03:09.437Z,14.23
2023-01-09T04:05:36.607Z,17.95
2023-01-09T04:08:03.741Z,17.40
2023-01-09T04:10:30.923Z,19.95
2023-01-09T04:12:58.099Z,16.23
2023-01-09T04:15:25.288Z,17.15
2023-01-09T04:17:52.404Z,9.90
2023-01-09T04:20:19.507Z,7.60
2023-01-09T04:22:46.729Z,6.28
2023-01-09T04:25:13.827Z,8.57
2023-01-09T04:27:40.920Z,5.00
2023-01-09T04:30:08.469Z,4.85
2023-01-09T04:32:35.568Z,5.28
2023-01-09T04:35:02.746Z,6.38
2023-01-09T04:37:29.961Z,4.68
2023-01-09T04:39:57.227Z,3.72
2023-01-09T04:42:24.392Z,4.25
2023-01-09T04:44:53.835Z,5.38
2023-01-09T04:47:21.635Z,5.25
2023-01-09T04:49:48.784Z,3.67
2023-01-09T04:52:15.980Z,3.95
2023-01-09T04:54:43.090Z,8.45
2023-01-09T04:57:10.321Z,5.88
2023-01-09T04:59:37.499Z,5.10
2023-01-09T05:02:04.707Z,5.38
2023-01-09T05:04:31.977Z,4.70
2023-01-09T05:06:59.152Z,4.68
2023-01-09T05:09:26.245Z,6.10
2023-01-09T05:11:53.378Z,4.13
2023-01-09T05:14:20.599Z,3.78
2023-01-09T05:16:47.745Z,4.25
2023-01-09T05:19:15.044Z,4.22
2023-01-09T05:21:42.196Z,4.10
2023-01-09T05:24:09.317Z,2.72
2023-01-09T05:26:36.445Z,2.55
2023-01-09T05:29:03.571Z,3.05
2023-01-09T05:31:30.688Z,6.10
2023-01-09T05:33:59.269Z,21.75
2023-01-09T05:36:26.402Z,26.13
2023-01-09T05:38:53.499Z,31.88
2023-01-09T05:41:22.145Z,5.20
2023-01-09T05:43:50.133Z,15.73
2023-01-09T05:46:17.243Z,3.40
2023-01-09T05:48:45.108Z,10.43
2023-01-09T05:51:12.713Z,4.70
2023-01-09T05:53:39.837Z,6.93
2023-01-09T05:56:07.137Z,15.25
2023-01-09T05:58:34.347Z,13.13
2023-01-09T06:01:01.557Z,6.72
2023-01-09T06:03:28.705Z,3.08
2023-01-09T06:05:55.838Z,7.78
2023-01-09T06:08:22.940Z,3.38
2023-01-09T06:10:50.071Z,3.10
2023-01-09T06:13:17.214Z,15.45
2023-01-09T06:15:44.344Z,23.55
2023-01-09T06:18:11.485Z,19.80
2023-01-09T06:20:38.656Z,9.88
2023-01-09T06:23:05.763Z,2.13
2023-01-09T06:25:32.945Z,4.32
2023-01-09T06:28:00.169Z,4.93
2023-01-09T06:30:27.257Z,5.85
2023-01-09T06:32:54.342Z,6.95
2023-01-09T06:35:22.390Z,12.40
2023-01-09T06:37:49.847Z,6.90
2023-01-09T06:40:17.364Z,7.90
2023-01-09T06:42:47.376Z,7.18
2023-01-09T06:45:14.574Z,4.78
2023-01-09T06:47:41.684Z,2.88
2023-01-09T06:50:12.551Z,3.72
2023-01-09T06:52:39.924Z,6.13
2023-01-09T06:55:07.539Z,4.68
2023-01-09T06:57:34.701Z,4.65
2023-01-09T07:00:01.848Z,4.13
2023-01-09T07:02:28.962Z,7.45
2023-01-09T07:04:56.118Z,5.43
2023-01-09T07:07:23.484Z,3.97
2023-01-09T07:09:50.656Z,4.30
2023-01-09T07:12:18.034Z,2.95
2023-01-09T07:14:45.181Z,4.05
2023-01-09T07:17:13.448Z,3.28
2023-01-09T07:19:40.609Z,2.25
2023-01-09T07:22:07.745Z,3.58
2023-01-09T07:24:34.848Z,6.93
2023-01-09T07:27:02.490Z,4.38
2023-01-09T07:29:29.636Z,3.42
2023-01-09T07:31:56.789Z,9.25
2023-01-09T07:34:23.919Z,4.15
2023-01-09T07:36:51.264Z,1.63
2023-01-09T07:39:18.411Z,2.33
2023-01-09T07:41:45.597Z,5.22
2023-01-09T07:44:12.814Z,15.02
2023-01-09T07:46:40.172Z,3.10
2023-01-09T07:49:07.543Z,4.00
2023-01-09T07:51:34.638Z,6.82
2023-01-09T07:54:01.738Z,3.88
2023-01-09T07:56:28.889Z,3.30
2023-01-09T07:58:55.994Z,2.72
2023-01-09T08:01:23.319Z,2.67
2023-01-09T08:03:50.618Z,3.17
2023-01-09T08:06:17.744Z,3.03
2023-01-09T08:08:44.875Z,4.43
2023-01-09T08:11:12.028Z,4.25
2023-01-09T08:13:39.201Z,3.40
2023-01-09T08:16:06.531Z,3.33
2023-01-09T08:18:33.763Z,8.25
2023-01-09T08:21:00.889Z,7.05
2023-01-09T08:23:28.039Z,3.67
2023-01-09T08:25:55.190Z,7.53
2023-01-09T08:28:22.291Z,1.52
2023-01-09T08:30:49.392Z,2.72
2023-01-09T08:33:16.537Z,2.65
2023-01-09T08:35:44.461Z,2.03
2023-01-09T08:38:11.678Z,2.90
2023-01-09T08:40:38.840Z,1.38
2023-01-09T08:43:24.530Z,2.60
2023-01-09T08:46:10.705Z,2.97
2023-01-09T08:48:37.826Z,5.80
2023-01-09T08:51:04.977Z,6.40
2023-01-09T08:53:32.141Z,6.75
2023-01-09T08:55:59.297Z,3.80
2023-01-09T08:58:26.406Z,4.97
2023-01-09T09:00:53.561Z,5.78
2023-01-09T09:03:21.723Z,2.30
2023-01-09T09:05:48.826Z,4.40
2023-01-09T09:08:16.549Z,2.67
2023-01-09T09:10:43.695Z,3.25
2023-01-09T09:13:10.786Z,2.33
2023-01-09T09:15:39.065Z,2.35
2023-01-09T09:18:07.118Z,1.70
2023-01-09T09:20:35.285Z,2.67
2023-01-09T09:23:02.469Z,2.30
2023-01-09T09:25:29.572Z,4.35
2023-01-09T09:27:56.740Z,4.00
2023-01-09T09:30:24.046Z,3.67
2023-01-09T09:32:51.242Z,2.88
2023-01-09T09:35:18.701Z,35.35
2023-01-09T09:37:53.612Z,11.40
2023-01-09T09:40:21.448Z,11.38
2023-01-09T09:43:11.075Z,3.53
2023-01-09T09:45:41.260Z,1.95
2023-01-09T09:48:28.905Z,2.20
2023-01-09T09:50:56.008Z,1.90
2023-01-09T09:53:35.262Z,2.50
2023-01-09T09:56:02.668Z,3.50
2023-01-09T09:58:39.970Z,1.23
2023-01-09T10:01:09.616Z,1.90
2023-01-09T10:03:38.618Z,1.55
2023-01-09T10:06:10.473Z,1.27
2023-01-09T10:09:04.023Z,2.75
2023-01-09T10:11:36.099Z,2.72
2023-01-09T10:14:10.423Z,2.83
2023-01-09T10:16:46.326Z,1.67
2023-01-09T10:19:31.458Z,2.03
2023-01-09T10:22:10.479Z,2.88
2023-01-09T10:24:40.340Z,2.78
2023-01-09T10:27:25.569Z,2.35
2023-01-09T10:29:58.999Z,1.75
2023-01-09T10:32:28.912Z,2.03
2023-01-09T10:35:11.028Z,2.85
2023-01-09T10:37:39.011Z,1.88
2023-01-09T10:40:08.313Z,1.45
2023-01-09T10:42:40.090Z,2.58
2023-01-09T10:45:33.252Z,4.70
2023-01-09T10:48:01.801Z,2.45
2023-01-09T10:50:30.187Z,1.75
2023-01-09T10:52:58.234Z,2.05
2023-01-09T10:55:32.235Z,2.92
2023-01-09T10:58:00.111Z,2.10
2023-01-09T11:00:27.312Z,2.40
2023-01-09T11:02:54.926Z,3.63
2023-01-09T11:05:28.000Z,2.97
2023-01-09T11:08:18.422Z,3.90
2023-01-09T11:10:47.702Z,2.40
2023-01-09T11:13:35.144Z,3.83
2023-01-09T11:16:05.627Z,2.03
2023-01-09T11:18:33.218Z,2.25
2023-01-09T11:21:13.094Z,2.30
2023-01-09T11:23:40.188Z,2.85
2023-01-09T11:26:07.710Z,3.05
2023-01-09T11:28:35.627Z,7.22
2023-01-09T11:31:03.042Z,14.40
2023-01-09T11:33:31.097Z,2.13
2023-01-09T11:35:59.457Z,1.17
2023-01-09T11:38:26.813Z,1.50
2023-01-09T11:40:55.359Z,1.52
2023-01-09T11:43:25.695Z,1.45
2023-01-09T11:46:01.211Z,1.65
2023-01-09T11:48:30.116Z,1.40
2023-01-09T11:50:58.276Z,3.60
2023-01-09T11:53:25.509Z,1.02
2023-01-09T11:55:57.498Z,1.02
2023-01-09T11:58:24.636Z,1.30
2023-01-09T12:00:54.690Z,2.72
2023-01-09T12:03:40.379Z,2.35
2023-01-09T12:06:27.749Z,1.58
2023-01-09T12:08:58.199Z,1.20
2023-01-09T12:11:30.941Z,2.20
2023-01-09T12:14:01.076Z,1.40
2023-01-09T12:16:31.128Z,0.70
2023-01-09T12:19:01.523Z,1.05
2023-01-09T12:21:31.645Z,2.25
2023-01-09T12:24:01.695Z,1.50
2023-01-09T12:26:37.605Z,1.35
2023-01-09T12:29:07.762Z,2.35
2023-01-09T12:31:36.845Z,2.95
2023-01-09T12:34:22.744Z,2.33
2023-01-09T12:36:52.969Z,8.13
2023-01-09T12:39:20.082Z,1.70
2023-01-09T12:41:50.003Z,1.05
2023-01-09T12:44:27.426Z,4.43
2023-01-09T12:47:10.877Z,0.88
2023-01-09T12:49:42.789Z,1.30
2023-01-09T12:52:10.783Z,4.88
2023-01-09T12:54:37.943Z,2.30
2023-01-09T12:57:07.195Z,4.80
2023-01-09T12:59:35.914Z,0.80
2023-01-09T13:02:21.903Z,2.03
2023-01-09T13:04:51.441Z,0.80
2023-01-09T13:07:19.246Z,1.27
2023-01-09T13:09:52.272Z,1.08
2023-01-09T13:12:21.670Z,0.63
2023-01-09T13:14:58.260Z,1.27
2023-01-09T13:17:32.369Z,0.60
2023-01-09T13:19:59.614Z,0.60
2023-01-09T13:22:28.476Z,1.77
2023-01-09T13:24:58.587Z,0.68
2023-01-09T13:27:25.870Z,1.17
2023-01-09T13:29:55.588Z,0.75
2023-01-09T13:32:43.467Z,1.63
2023-01-09T13:35:14.263Z,0.75
2023-01-09T13:37:41.446Z,1.00
2023-01-09T13:40:26.661Z,1.08
2023-01-09T13:42:56.974Z,2.85
2023-01-09T13:45:27.606Z,7.70
2023-01-09T13:48:10.944Z,4.85
2023-01-09T13:50:38.671Z,3.80
2023-01-09T13:53:27.124Z,1.75
2023-01-09T13:56:14.546Z,6.35
2023-01-09T13:58:56.722Z,9.27
2023-01-09T14:01:37.446Z,2.85
2023-01-09T14:04:10.349Z,8.05
2023-01-09T14:06:37.483Z,1.67
2023-01-09T14:09:18.893Z,1.63
2023-01-09T14:11:46.075Z,2.08
2023-01-09T14:14:43.416Z,1.65
2023-01-09T14:17:23.653Z,2.25
2023-01-09T14:19:53.953Z,2.50
2023-01-09T14:22:24.845Z,5.68
2023-01-09T14:24:52.979Z,1.98
2023-01-09T14:27:38.920Z,1.90
2023-01-09T14:30:28.469Z,1.83
2023-01-09T14:32:59.370Z,4.38
2023-01-09T14:35:28.415Z,4.35
2023-01-09T14:38:24.936Z,2.80
2023-01-09T14:41:00.709Z,4.45
2023-01-09T14:43:32.426Z,6.03
2023-01-09T14:46:00.306Z,7.63
2023-01-09T14:48:27.552Z,8.57
2023-01-09T14:50:59.146Z,6.95
2023-01-09T14:53:27.923Z,7.00
2023-01-09T14:55:55.086Z,11.18
2023-01-09T14:58:25.079Z,3.50
2023-01-09T15:01:12.541Z,4.35
2023-01-09T15:03:39.717Z,5.90
2023-01-09T15:06:07.090Z,1.65
2023-01-09T15:08:34.256Z,1.50
2023-01-09T15:11:01.393Z,1.90
2023-01-09T15:13:38.452Z,4.28
2023-01-09T15:16:06.053Z,1.88
2023-01-09T15:18:34.562Z,3.00
2023-01-09T15:21:02.382Z,2.22
2023-01-09T15:23:30.400Z,6.80
2023-01-09T15:25:58.162Z,1.15
2023-01-09T15:28:26.877Z,5.28
2023-01-09T15:30:55.475Z,3.60
2023-01-09T15:33:22.612Z,2.67
2023-01-09T15:35:50.683Z,7.72
2023-01-09T15:38:24.396Z,7.57
2023-01-09T15:41:10.559Z,14.38
2023-01-09T15:43:40.333Z,6.78
2023-01-09T15:46:07.555Z,1.70
2023-01-09T15:48:35.112Z,2.90
2023-01-09T15:51:10.744Z,3.17
2023-01-09T15:53:37.942Z,2.90
2023-01-09T15:56:06.652Z,12.20
2023-01-09T15:58:37.287Z,14.35
2023-01-09T16:01:04.494Z,23.10
2023-01-09T16:03:31.664Z,46.03
2023-01-09T16:06:05.713Z,23.98
2023-01-09T16:08:42.739Z,18.25
2023-01-09T16:11:10.948Z,20.13
2023-01-09T16:13:44.938Z,9.55
2023-01-09T16:16:12.261Z,9.95
2023-01-09T16:18:39.891Z,9.02
2023-01-09T16:21:21.286Z,9.50
2023-01-09T16:23:55.722Z,14.52
2023-01-09T16:26:23.838Z,16.05
2023-01-09T16:28:51.018Z,8.57
2023-01-09T16:31:25.658Z,15.15
2023-01-09T16:33:57.330Z,19.40
2023-01-09T16:36:24.471Z,21.80
2023-01-09T16:38:51.601Z,20.48
2023-01-09T16:41:40.088Z,19.02
2023-01-09T16:44:09.623Z,14.27
2023-01-09T16:46:38.439Z,15.48
2023-01-09T16:49:06.357Z,10.18
2023-01-09T16:51:33.536Z,6.25
2023-01-09T16:54:00.646Z,8.95
2023-01-09T16:56:28.800Z,25.17
2023-01-09T16:58:56.078Z,15.20
2023-01-09T17:01:23.444Z,14.02
2023-01-09T17:03:51.055Z,12.27
2023-01-09T17:06:31.499Z,8.90
2023-01-09T17:08:58.630Z,8.38
2023-01-09T17:11:32.740Z,19.05
2023-01-09T17:14:00.206Z,13.45
2023-01-09T17:16:27.374Z,14.73
2023-01-09T17:18:54.527Z,14.55
2023-01-09T17:21:22.545Z,13.95
2023-01-09T17:24:12.574Z,12.15
2023-01-09T17:26:58.887Z,11.18
2023-01-09T17:29:26.096Z,11.82
2023-01-09T17:31:53.304Z,13.65
2023-01-09T17:34:20.523Z,20.02
2023-01-09T17:36:47.740Z,32.35
2023-01-09T17:39:15.433Z,31.50
2023-01-09T17:41:42.679Z,32.70
2023-01-09T17:44:10.575Z,28.38
2023-01-09T17:46:39.213Z,17.77
2023-01-09T17:49:06.407Z,13.32
2023-01-09T17:51:33.599Z,15.48
2023-01-09T17:54:00.779Z,12.02
2023-01-09T17:56:29.187Z,12.25
2023-01-09T17:58:56.324Z,17.70
2023-01-09T18:01:23.476Z,13.35
2023-01-09T18:03:50.678Z,16.92
2023-01-09T18:06:18.614Z,18.27
2023-01-09T18:08:45.769Z,14.13
2023-01-09T18:11:14.097Z,13.15
2023-01-09T18:13:41.556Z,11.57
2023-01-09T18:16:12.486Z,14.23
2023-01-09T18:18:40.284Z,15.15
2023-01-09T18:21:08.026Z,12.98
2023-01-09T18:23:35.401Z,22.95
2023-01-09T18:26:06.984Z,25.77
2023-01-09T18:28:36.600Z,30.27
2023-01-09T18:31:03.819Z,30.02
2023-01-09T18:33:30.999Z,31.17
2023-01-09T18:36:03.481Z,34.42
2023-01-09T18:38:30.583Z,39.97
2023-01-09T18:41:03.901Z,37.85
2023-01-09T18:43:31.176Z,35.65
2023-01-09T18:45:58.354Z,35.33
2023-01-09T18:48:25.571Z,35.88
2023-01-09T18:50:52.669Z,36.33
2023-01-09T18:53:19.795Z,35.50
2023-01-09T18:55:46.914Z,34.95
2023-01-09T18:58:14.089Z,45.03
2023-01-09T19:00:41.723Z,39.30
2023-01-09T19:03:08.929Z,31.38
2023-01-09T19:05:36.019Z,32.08
2023-01-09T19:08:03.102Z,43.53
2023-01-09T19:10:30.257Z,45.33
2023-01-09T19:12:57.374Z,39.15
2023-01-09T19:15:24.492Z,32.30
2023-01-09T19:17:51.896Z,38.58
2023-01-09T19:20:19.234Z,44.63
2023-01-09T19:22:46.359Z,45.00
2023-01-09T19:25:13.529Z,40.15
2023-01-09T19:27:40.640Z,25.30
2023-01-09T19:30:08.117Z,27.27
2023-01-09T19:32:35.285Z,47.42
2023-01-09T19:35:02.386Z,52.72
2023-01-09T19:37:29.493Z,48.13
2023-01-09T19:39:56.640Z,62.08
2023-01-09T19:42:23.736Z,59.33
2023-01-09T19:44:50.832Z,38.55
2023-01-09T19:47:18.024Z,42.60
2023-01-09T19:49:45.140Z,46.72
2023-01-09T19:52:12.297Z,44.17
2023-01-09T19:54:40.248Z,42.50
2023-01-09T19:57:07.358Z,24.67
2023-01-09T19:59:36.041Z,21.17
2023-01-09T20:02:03.465Z,25.23
2023-01-09T20:04:30.669Z,58.78
2023-01-09T20:06:57.795Z,67.72
2023-01-09T20:09:27.470Z,48.00
2023-01-09T20:11:54.919Z,46.38
2023-01-09T20:14:22.581Z,81.45
2023-01-09T20:16:50.755Z,92.13
2023-01-09T20:19:17.897Z,77.95
2023-01-09T20:21:45.085Z,52.33
2023-01-09T20:24:16.830Z,59.47
2023-01-09T20:26:46.039Z,68.75
2023-01-09T20:29:13.282Z,93.57
2023-01-09T20:31:40.574Z,88.32
2023-01-09T20:34:07.766Z,96.70
2023-01-09T20:36:34.919Z,87.03
2023-01-09T20:39:02.697Z,153.05
2023-01-09T20:41:31.280Z,169.90
2023-01-09T20:44:08.253Z,160.50
2023-01-09T20:46:37.041Z,155.38
2023-01-09T20:49:06.430Z,52.50
2023-01-09T20:51:34.451Z,33.45
2023-01-09T20:54:01.698Z,32.05
2023-01-09T20:56:30.085Z,29.42
2023-01-09T20:58:57.543Z,33.13
2023-01-09T21:01:24.914Z,34.42
2023-01-09T21:03:52.681Z,38.90
2023-01-09T21:06:20.363Z,30.98
2023-01-09T21:08:47.708Z,29.35
2023-01-09T21:11:15.182Z,31.23
2023-01-09T21:13:42.308Z,31.23
2023-01-09T21:16:13.263Z,28.17
2023-01-09T21:18:40.559Z,26.38
2023-01-09T21:21:09.122Z,24.00
2023-01-09T21:23:36.505Z,26.85
2023-01-09T21:26:08.570Z,22.60
2023-01-09T21:28:45.317Z,25.63
2023-01-09T21:31:13.056Z,25.70
2023-01-09T21:33:40.300Z,25.00
2023-01-09T21:36:07.776Z,24.08
2023-01-09T21:38:34.934Z,27.38
2023-01-09T21:41:22.041Z,29.17
2023-01-09T21:44:07.936Z,25.95
2023-01-09T21:46:55.725Z,32.78
2023-01-09T21:49:25.278Z,47.33
2023-01-09T21:51:55.461Z,43.28
2023-01-09T21:54:25.743Z,48.60
2023-01-09T21:56:53.185Z,48.15
2023-01-09T21:59:20.368Z,52.80
2023-01-09T22:01:48.474Z,58.63
2023-01-09T22:04:15.868Z,64.63
2023-01-09T22:06:43.118Z,60.65
2023-01-09T22:09:10.431Z,64.25
2023-01-09T22:11:38.329Z,41.50
2023-01-09T22:14:05.534Z,42.25
2023-01-09T22:16:32.772Z,53.38
2023-01-09T22:19:00.079Z,51.53
2023-01-09T22:21:27.282Z,46.05
2023-01-09T22:23:54.407Z,40.35
2023-01-09T22:26:21.610Z,38.85
2023-01-09T22:28:48.830Z,36.85
2023-01-09T22:31:19.866Z,35.83
2023-01-09T22:33:50.720Z,36.00
2023-01-09T22:36:17.886Z,35.22
2023-01-09T22:38:45.085Z,39.53
2023-01-09T22:41:12.385Z,40.28
2023-01-09T22:43:39.562Z,34.38
2023-01-09T22:46:11.545Z,37.08
2023-01-09T22:48:39.264Z,31.55
2023-01-09T22:51:07.332Z,29.17
2023-01-09T22:53:34.488Z,31.35
2023-01-09T22:56:02.472Z,31.05
2023-01-09T22:58:32.599Z,33.17
2023-01-09T23:00:59.764Z,29.60
2023-01-09T23:03:27.046Z,35.92
2023-01-09T23:06:03.771Z,30.77
2023-01-09T23:08:31.021Z,31.77
2023-01-09T23:10:58.268Z,29.10
2023-01-09T23:13:25.407Z,31.73
2023-01-09T23:15:52.566Z,29.73
2023-01-09T23:18:19.878Z,31.85
2023-01-09T23:20:59.968Z,33.28
2023-01-09T23:23:27.454Z,32.78
2023-01-09T23:25:55.345Z,28.40
2023-01-09T23:28:22.610Z,26.92
2023-01-09T23:30:49.810Z,28.75
2023-01-09T23:33:17.179Z,26.58
2023-01-09T23:35:44.597Z,28.83
2023-01-09T23:38:11.786Z,27.10
2023-01-09T23:40:39.258Z,42.22
2023-01-09T23:43:09.518Z,25.08
2023-01-09T23:45:37.416Z,20.58
2023-01-09T23:48:05.385Z,15.55
2023-01-09T23:50:32.541Z,15.35
2023-01-09T23:52:59.678Z,14.13
2023-01-09T23:55:26.835Z,15.52
2023-01-09T23:57:56.963Z,13.88
